Terminal Aerodrome Forecast
Issued by NWS

Home | Current Version | Previous Version | Text Only | Print | Product List | Glossary On
Versions: 1 2 3 4 5 6 7 8 9 10 11 12 13 14 15 16 17 18 19 20 21 22 23 24
485
FTUS41 KBTV 201128
TAFSLK
TAF
KSLK 201128Z 2012/2112 27007KT P6SM VCSH OVC010
      TEMPO 2012/2014 BKN009
     FM201700 30010G16KT P6SM OVC020
     FM210200 26005KT P6SM BKN025
     FM210700 30005KT P6SM SCT100=

USA.gov is the U.S. government's official web portal to all federal, state and local government web resources and services.